Hauptseite
METAR-TAF:

METAR-TAF

Flughäfen :

Vannes, Frankreich

Flughafen Vannes

Breite: 47-43-19N, Länge: 2-43-41W, Höhe: 130 m

Beobachtung

Neuester Wetterbericht von vor 20 Minuten, um 09:00 UTC
Wind 5 kt aus Nord, variierte zwischen Nordwest und Ost/Nordost
Temperatur 13°C
Luftfeuchtigkeit 72%
Luftdruck 1021 hPa
Sichtweite 10 km oder mehr
Leicht bewölkt in der Höhe von 1900 ft
Geschlossene Wolkendecke in der Höhe von 3100 ft

METAR: LFRV 230900Z AUTO 36005KT 310V060 9999 FEW019 OVC031 13/08 Q1021

Zeit: 11:20 (09:20 UTC)


TAF: fehlend

Wetterbeobachtungen und Prognosen von mehr als 4000 Flughäfen (METAR und TAF Bericht).

Die verfügbaren Stationen werden durch gelbe und rote Markierungen auf der Karte dargestellt.

Führen Sie die Maus auf sie, um den Namen der Station zu sehen.

Darauf klicken, um die Beobachtung von Wetterbeobachtungen und Prognosen zu sehen.

Um die Karte zu ändern : klicken Sie auf den grünen Tasten mit einem schwarzen Kreuz Zum Vergrößern, auf den grünen Button mit einem Gedankenstrich zu verkleinern, oder auf die grünen Pfeile für benachbarte Karten.


METAR-TAF: